Flight Track Log - Related Links

Times and Time Zones

All times are in EDT time to prevent confusion due to time zone crossing. See the BOE501 flight status page for this flight to view local times or setup timezone preferences in your user account.

Time Position Orientation Groundspeed Altitude Reporting Facility
EDT Latitude Longitude Course Direction KTS MPH feet Rate Location/Type
Fri 04:03:04 PM 47.2328 -119.3310 334° Northwest 30,000  Level Seattle Center
Fri 04:04:04 PM 47.2744 -119.3610 244° Southwest 199 229 3,100 -12,300 Descending D
Fri 04:05:04 PM 47.2478 -119.4410 221° Southwest 154 177 5,400 2,300 Climbing C
Fri 04:06:04 PM 47.2000 -119.5020 219° Southwest 177 204 7,700 2,250 Climbing C
Fri 04:07:04 PM 47.1461 -119.5660 218° Southwest 215 247 9,900 2,250 Climbing C
Fri 04:08:04 PM 47.0881 -119.6330 218° Southwest 249 287 12,200 2,500 Climbing C
Fri 04:09:04 PM 47.0256 -119.7040 218° Southwest 269 310 14,900 2,450 Climbing C
Fri 04:10:04 PM 46.9653 -119.7740 187° South 281 323 17,100 1,950 Climbing C
Fri 04:11:04 PM 46.8778 -119.7890 127° Southeast 291 335 18,800 1,700 Climbing C
Fri 04:12:04 PM 46.8194 -119.6770 119° Southeast 262 302 20,500 1,750 Climbing C
Fri 04:13:04 PM 46.7653 -119.5340 116° Southeast 306 352 22,300 1,600 Climbing C
Fri 04:14:04 PM 46.7147 -119.3860 118° Southeast 359 413 23,700 1,450 Climbing C
Fri 04:15:04 PM 46.6600 -119.2360 116° Southeast 395 455 25,200 1,600 Climbing C
Fri 04:16:04 PM 46.6072 -119.0820 115° Southeast 414 476 26,900 1,450 Climbing C
Fri 04:17:04 PM 46.5542 -118.9200 117° Southeast 427 491 28,100 1,100 Climbing C
Fri 04:18:04 PM 46.5008 -118.7700 116° Southeast 447 514 29,100 1,150 Climbing C
Fri 04:19:04 PM 46.4453 -118.6080 115° Southeast 452 520 30,400 950 Climbing C
Fri 04:20:04 PM 46.3914 -118.4440 117° Southeast 447 514 31,000 300 Climbing C
Fri 04:21:04 PM 46.3331 -118.2800 110° East 447 514 31,000 50 Level
Fri 04:22:04 PM 46.2914 -118.1160 118° Southeast 442 509 31,100 -50 Climbing C
Fri 04:23:04 PM 46.2328 -117.9560 118° Southeast 442 509 30,900 -100 Descending D
Fri 04:24:04 PM 46.1739 -117.7990 120° Southeast 442 509 30,900  Level
Fri 04:25:04 PM 46.1106 -117.6390 118° Southeast 447 514 30,900  Level
Fri 04:26:04 PM 46.0536 -117.4830 118° Southeast 452 520 30,900  Level
Fri 04:27:04 PM 45.9897 -117.3120 119° Southeast 460 529 30,900 50 Level
Fri 04:28:04 PM 45.9278 -117.1510 119° Southeast 460 529 31,000 151 Climbing C
Fri 04:29:03 PM 45.8633 -116.9840 123° Southeast 465 535 31,200 50 Climbing C
Fri 04:30:04 PM 45.7950 -116.8320 80° East 465 535 31,100 -50 Descending D
Fri 04:31:04 PM 45.8158 -116.6680 North 419 482 31,100  Level
Fri 04:32:04 PM 45.9300 -116.6580 297° West 301 346 31,100  Level
Fri 04:33:04 PM 45.9797 -116.7990 294° West 224 258 31,100  Level
Fri 04:34:04 PM 46.0272 -116.9550 293° West 322 371 31,100 -50 Level
Fri 04:35:04 PM 46.0725 -117.1080 292° West 381 438 31,000 -100 Descending D
Fri 04:36:04 PM 46.1156 -117.2590 294° West 404 465 30,900  Descending D
Fri 04:37:04 PM 46.1603 -117.4070 294° West 409 471 31,000 50 Climbing C
Fri 04:38:03 PM 46.2069 -117.5610 294° West 409 471 31,000  Level
Fri 04:39:04 PM 46.2536 -117.7120 294° West 414 476 31,000  Level
Fri 04:40:04 PM 46.3000 -117.8630 294° West 409 471 31,000  Level
Fri 04:41:04 PM 46.3461 -118.0120 291° West 409 471 31,000  Level
Fri 04:42:04 PM 46.3856 -118.1610 287° West 415 478 31,000  Level
Fri 04:43:03 PM 46.4211 -118.3260 288° West 410 472 31,000  Level
Fri 04:44:04 PM 46.4564 -118.4820 288° West 410 472 31,000  Level

Login

Don't have an account? Register now (free) for customized features, flight alerts, and more!